Time;durP1;ratioP1;P1;durP2;ratioP2;P2;SDS_P1;SDS_P2;PMS_P1;PMS_P2;Temp;Humidity;BMP_temperature;BMP_pressure;BME280_temperature;BME280_humidity;BME280_pressure;Samples;Min_cycle;Max_cycle;Signal;HPM_P1;HPM_P2
2021/08/28 00:04:06;;;;;;;9.83;7.85;;;;;;;10.90;98.77;98792.52;3847838;92;21249;-83
2021/08/28 00:10:08;;;;;;;13.53;8.70;;;;;;;10.88;98.51;98788.02;3838161;91;21092;-83
2021/08/28 00:16:10;;;;;;;11.38;7.72;;;;;;;10.89;98.63;98791.75;3849338;91;21141;-83
2021/08/28 00:22:11;;;;;;;12.37;7.67;;;;;;;10.78;98.02;98799.68;3892814;91;21083;-83
2021/08/28 00:28:12;;;;;;;11.38;7.55;;;;;;;10.53;97.26;98805.55;3899412;90;21044;-83
2021/08/28 00:34:14;;;;;;;15.10;8.05;;;;;;;10.48;98.24;98818.20;3890551;90;22332;-83
2021/08/28 00:40:15;;;;;;;11.63;7.28;;;;;;;10.39;97.43;98821.28;3888274;90;21459;-82
2021/08/28 00:46:19;;;;;;;12.82;7.22;;;;;;;10.18;97.21;98817.56;3916326;89;21589;-82
2021/08/28 00:52:20;;;;;;;9.23;7.42;;;;;;;9.98;97.34;98819.66;3923433;89;21551;-84
2021/08/28 00:58:22;;;;;;;11.90;8.25;;;;;;;10.09;98.56;98826.06;3924187;89;21110;-83
2021/08/28 01:04:26;;;;;;;11.40;7.92;;;;;;;10.14;98.50;98828.46;3927711;89;21075;-83
2021/08/28 01:10:38;;;;;;;12.07;7.10;;;;;;;10.11;97.56;98827.05;3914801;90;21868;-84
2021/08/28 01:16:51;;;;;;;10.58;6.72;;;;;;;10.06;98.05;98833.62;3912508;89;21088;-83
2021/08/28 01:22:54;;;;;;;10.58;7.20;;;;;;;9.88;97.16;98826.39;3920338;89;21681;-83
2021/08/28 01:29:19;;;;;;;11.03;6.58;;;;;;;9.78;97.76;98825.68;3864756;89;21571;-83
2021/08/28 01:35:22;;;;;;;10.15;6.62;;;;;;;9.85;98.56;98832.01;3900006;90;21051;-83
2021/08/28 01:41:26;;;;;;;7.65;6.12;;;;;;;9.70;97.80;98829.48;3891179;90;22071;-84
2021/08/28 01:47:30;;;;;;;9.75;6.33;;;;;;;9.71;98.21;98829.11;3918463;90;21099;-83
2021/08/28 01:53:32;;;;;;;9.23;5.62;;;;;;;9.72;97.88;98823.08;3908919;90;21080;-84
2021/08/28 01:59:33;;;;;;;12.13;6.42;;;;;;;9.74;98.59;98831.09;3913759;90;21058;-83
2021/08/28 02:05:42;;;;;;;9.33;5.90;;;;;;;9.76;98.36;98832.89;3892747;89;21093;-84
2021/08/28 02:11:52;;;;;;;6.95;5.12;;;;;;;9.74;98.10;98834.43;3911810;89;21099;-84
2021/08/28 02:18:05;;;;;;;8.70;6.20;;;;;;;9.58;97.19;98829.73;3916855;90;21111;-83
2021/08/28 02:24:13;;;;;;;11.88;6.78;;;;;;;9.33;97.43;98822.00;3906838;90;21142;-83
2021/08/28 02:30:18;;;;;;;10.93;6.95;;;;;;;9.38;98.49;98829.88;3912572;90;21167;-83
2021/08/28 02:36:24;;;;;;;9.90;6.83;;;;;;;9.39;98.16;98831.47;3916672;89;21162;-83
2021/08/28 02:42:26;;;;;;;8.63;6.60;;;;;;;9.41;98.10;98844.77;3923190;89;21569;-83
2021/08/28 02:48:30;;;;;;;8.40;5.72;;;;;;;9.42;98.00;98846.33;3925301;89;22173;-83
2021/08/28 02:54:34;;;;;;;7.42;6.05;;;;;;;9.41;97.34;98849.63;3912305;89;21087;-83
2021/08/28 03:00:36;;;;;;;8.23;5.80;;;;;;;9.31;97.22;98848.92;3910294;89;21076;-83
2021/08/28 03:06:39;;;;;;;8.53;5.78;;;;;;;9.18;97.60;98850.30;3915435;89;21088;-83
2021/08/28 03:12:42;;;;;;;8.33;6.37;;;;;;;9.08;96.43;98848.78;3913062;89;21131;-83
2021/08/28 03:18:46;;;;;;;9.73;6.58;;;;;;;8.84;96.12;98844.53;3926027;89;21670;-83
2021/08/28 03:24:50;;;;;;;12.58;6.50;;;;;;;8.71;96.56;98846.44;3913330;90;21104;-83
2021/08/28 03:30:54;;;;;;;8.60;5.70;;;;;;;8.61;96.43;98838.89;3914307;89;21607;-81
2021/08/28 03:36:56;;;;;;;12.13;5.92;;;;;;;8.49;96.26;98841.81;3907752;89;21281;-83
2021/08/28 03:42:57;;;;;;;6.95;5.80;;;;;;;8.16;95.91;98839.62;3909560;88;22331;-83
2021/08/28 03:48:58;;;;;;;8.30;5.75;;;;;;;8.03;96.75;98839.01;3855249;91;21092;-83
2021/08/28 03:55:00;;;;;;;9.05;6.30;;;;;;;7.98;96.55;98832.52;3876023;91;21084;-83
2021/08/28 04:01:02;;;;;;;9.40;6.28;;;;;;;7.76;96.29;98837.34;3869793;90;21601;-82
2021/08/28 04:07:04;;;;;;;12.63;6.70;;;;;;;7.50;96.55;98838.55;3882588;90;21770;-83
2021/08/28 04:13:05;;;;;;;8.30;6.05;;;;;;;7.50;97.58;98842.63;3879923;90;21148;-83
2021/08/28 04:19:07;;;;;;;12.93;6.87;;;;;;;7.64;97.97;98840.20;3871736;91;21176;-83
2021/08/28 04:25:25;;;;;;;8.78;6.28;;;;;;;7.95;98.90;98837.30;3877075;90;21148;-83
2021/08/28 04:31:37;;;;;;;11.85;6.75;;;;;;;8.24;98.95;98837.88;3879252;91;21124;-83
2021/08/28 04:37:38;;;;;;;8.78;5.83;;;;;;;8.16;97.99;98845.08;3879606;90;21083;-82
2021/08/28 04:43:39;;;;;;;8.60;6.03;;;;;;;8.43;99.11;98848.70;3886914;90;21218;-83
2021/08/28 04:49:48;;;;;;;11.93;7.58;;;;;;;8.64;98.98;98844.97;3904787;90;21646;-83
2021/08/28 04:56:00;;;;;;;8.78;5.30;;;;;;;8.61;98.58;98847.07;3905778;89;21905;-83
2021/08/28 05:02:04;;;;;;;14.53;5.67;;;;;;;8.75;98.49;98850.03;3917657;90;21135;-82
2021/08/28 05:08:07;;;;;;;10.58;7.47;;;;;;;8.62;97.99;98861.71;3905694;90;21116;-83
2021/08/28 05:14:08;;;;;;;12.43;7.85;;;;;;;8.77;99.33;98864.87;3907996;89;21066;-83
2021/08/28 05:20:10;;;;;;;10.23;6.62;;;;;;;8.98;99.31;98862.48;3912454;89;21117;-83
2021/08/28 05:26:14;;;;;;;9.83;6.92;;;;;;;9.17;99.26;98854.76;3916229;90;21519;-83
2021/08/28 05:32:17;;;;;;;7.50;4.45;;;;;;;9.33;99.18;98858.11;3914636;89;21549;-84
2021/08/28 05:38:18;;;;;;;8.90;4.33;;;;;;;9.49;99.30;98857.33;3914403;90;21539;-83
2021/08/28 05:44:20;;;;;;;6.40;3.83;;;;;;;9.61;99.30;98869.98;3908779;88;21111;-83
2021/08/28 05:50:22;;;;;;;7.83;4.17;;;;;;;9.80;99.54;98868.47;3921504;89;21532;-83
2021/08/28 05:56:23;;;;;;;7.97;3.60;;;;;;;9.97;99.49;98874.73;3910663;89;21593;-83
2021/08/28 06:02:25;;;;;;;5.03;3.25;;;;;;;10.12;99.54;98872.37;3914175;89;22237;-83
2021/08/28 06:08:27;;;;;;;4.87;3.25;;;;;;;10.25;99.70;98871.76;3916384;89;21110;-83
2021/08/28 06:14:30;;;;;;;13.55;3.40;;;;;;;10.39;99.76;98879.31;3867957;89;21120;-83
2021/08/28 06:20:32;;;;;;;4.60;3.02;;;;;;;10.60;99.91;98881.66;3918261;89;21086;-85
2021/08/28 06:26:34;;;;;;;4.95;2.35;;;;;;;10.85;99.95;98876.42;3922194;89;21055;-84
2021/08/28 06:32:36;;;;;;;3.65;2.62;;;;;;;11.14;100.00;98871.34;3916863;89;21535;-84
2021/08/28 06:38:37;;;;;;;5.15;2.98;;;;;;;11.39;99.72;98859.95;3911605;89;21059;-83
2021/08/28 06:44:57;;;;;;;5.33;2.47;;;;;;;11.56;99.30;98860.63;3917242;89;21068;-82
2021/08/28 06:51:15;;;;;;;3.15;2.60;;;;;;;11.74;99.48;98865.66;3856602;90;21176;-83
2021/08/28 06:57:36;;;;;;;2.98;1.90;;;;;;;11.92;99.40;98861.58;3716227;94;21215;-83
2021/08/28 07:03:39;;;;;;;3.45;2.37;;;;;;;12.16;99.18;98865.00;3879232;90;21106;-83
2021/08/28 07:09:42;;;;;;;2.40;2.20;;;;;;;12.38;99.19;98859.76;3903772;89;21063;-84
2021/08/28 07:15:44;;;;;;;4.80;2.33;;;;;;;12.70;99.29;98858.42;3901962;89;21204;-84
2021/08/28 07:21:50;;;;;;;3.77;2.43;;;;;;;12.94;98.91;98859.00;3898815;90;21111;-83
2021/08/28 07:27:51;;;;;;;2.90;1.92;;;;;;;13.07;98.69;98854.12;3898102;90;21082;-84
2021/08/28 07:34:11;;;;;;;5.17;2.30;;;;;;;13.29;98.29;98859.00;3904170;90;21595;-83
2021/08/28 07:40:13;;;;;;;8.68;3.60;;;;;;;13.52;98.32;98856.58;3826265;92;21625;-83
2021/08/28 07:46:15;;;;;;;8.33;4.45;;;;;;;13.78;97.62;98856.88;3757801;92;21760;-83
2021/08/28 07:52:18;;;;;;;11.25;5.00;;;;;;;14.06;97.26;98859.50;3785900;92;21077;-83
2021/08/28 07:58:20;;;;;;;11.10;4.25;;;;;;;14.36;96.84;98864.48;3779380;93;21219;-83
2021/08/28 08:04:21;;;;;;;13.30;5.42;;;;;;;14.68;95.71;98862.30;3895602;90;21045;-83
2021/08/28 08:10:34;;;;;;;12.50;4.03;;;;;;;15.05;95.79;98858.25;3898374;90;21115;-83
2021/08/28 08:16:55;;;;;;;6.00;2.98;;;;;;;15.40;94.68;98860.71;3661277;96;21713;-82
2021/08/28 08:23:04;;;;;;;5.92;2.17;;;;;;;15.69;94.00;98845.39;3853169;90;21656;-82
2021/08/28 08:29:24;;;;;;;2.00;0.90;;;;;;;16.00;92.96;98853.12;3894652;90;21599;-82
2021/08/28 08:35:34;;;;;;;1.62;0.93;;;;;;;16.12;90.92;98855.31;3897876;90;21917;-83
2021/08/28 08:41:36;;;;;;;0.82;0.72;;;;;;;16.27;90.09;98860.81;3892300;91;21614;-83
2021/08/28 08:47:37;;;;;;;1.47;0.95;;;;;;;16.38;89.41;98856.55;3891329;90;21135;-82
2021/08/28 08:53:40;;;;;;;1.10;0.82;;;;;;;16.63;88.91;98852.84;3867752;91;21167;-82
2021/08/28 08:59:47;;;;;;;1.47;0.80;;;;;;;16.85;87.72;98854.08;3874351;90;21056;-82
2021/08/28 09:05:48;;;;;;;3.27;1.00;;;;;;;16.94;87.04;98852.31;3858463;91;21186;-83
2021/08/28 09:12:03;;;;;;;2.22;1.07;;;;;;;17.19;85.82;98850.53;3882219;90;21140;-82
2021/08/28 09:18:07;;;;;;;1.70;1.20;;;;;;;17.42;84.46;98853.27;3879786;91;21699;-82
2021/08/28 09:24:11;;;;;;;2.83;1.00;;;;;;;17.67;82.70;98850.83;3881671;90;21533;-82
2021/08/28 09:30:27;;;;;;;2.08;1.52;;;;;;;18.14;83.04;98848.67;3876321;91;21109;-82
2021/08/28 09:36:28;;;;;;;2.85;1.55;;;;;;;18.79;81.34;98849.00;3873167;90;21083;-82
2021/08/28 09:42:30;;;;;;;1.52;1.10;;;;;;;19.83;79.46;98850.83;3876439;91;21056;-82
2021/08/28 09:48:32;;;;;;;1.50;1.20;;;;;;;20.66;75.65;98843.98;3912078;90;21031;-84
2021/08/28 09:54:37;;;;;;;1.60;1.00;;;;;;;20.42;75.15;98845.55;3911181;90;22375;-83
2021/08/28 10:00:45;;;;;;;1.22;0.95;;;;;;;21.23;72.35;98848.49;3901013;90;21068;-83
2021/08/28 10:06:49;;;;;;;1.85;1.10;;;;;;;21.25;73.04;98850.22;3919947;89;21063;-82
2021/08/28 10:12:50;;;;;;;2.05;1.20;;;;;;;;;;3920361;90;21178;-82
2021/08/28 10:18:53;;;;;;;3.62;1.00;;;;;;;22.48;67.30;98839.52;3889749;91;21111;-83
2021/08/28 10:24:57;;;;;;;2.62;1.25;;;;;;;23.60;69.38;98843.84;3895625;90;21088;-83
2021/08/28 10:30:59;;;;;;;3.02;0.82;;;;;;;23.54;67.62;98839.38;3880664;90;21337;-83
2021/08/28 10:37:01;;;;;;;0.90;0.60;;;;;;;23.28;67.38;98836.08;3890945;91;21320;-84
2021/08/28 10:43:06;;;;;;;1.22;1.12;;;;;;;22.89;66.53;98834.11;3896838;90;21104;-83
2021/08/28 10:49:11;;;;;;;1.43;0.87;;;;;;;23.21;61.05;98830.14;3899868;89;21122;-82
2021/08/28 10:55:13;;;;;;;1.70;0.70;;;;;;;22.13;63.81;98831.11;3865272;90;21071;-82
2021/08/28 11:01:18;;;;;;;0.55;0.50;;;;;;;21.83;63.42;98840.83;3893844;90;21585;-84
2021/08/28 11:07:29;;;;;;;1.27;0.40;;;;;;;21.84;63.92;98840.38;3901011;89;21107;-82
2021/08/28 11:14:06;;;;;;;0.65;0.45;;;;;;;22.52;62.57;98840.17;3901450;90;21151;-83
2021/08/28 11:20:07;;;;;;;;;;;;;;;22.46;61.91;98829.42;3889919;90;21091;-82
2021/08/28 11:26:09;;;;;;;0.65;0.50;;;;;;;22.52;58.91;98831.05;3882287;91;20141;-83
2021/08/28 11:32:17;;;;;;;0.70;0.40;;;;;;;22.01;60.85;98836.16;3881555;91;21081;-83
2021/08/28 11:38:23;;;;;;;1.77;0.50;;;;;;;21.48;60.96;98838.67;3883422;91;21064;-83
2021/08/28 11:44:23;;;;;;;0.98;0.40;;;;;;;21.34;60.87;98845.52;3887451;90;21104;-83
2021/08/28 11:50:32;;;;;;;0.80;0.55;;;;;;;21.02;57.59;98838.85;3903265;89;21075;-83
2021/08/28 11:56:35;;;;;;;0.65;0.65;;;;;;;20.66;59.32;98852.33;3902599;90;21103;-82
2021/08/28 12:02:36;;;;;;;3.50;0.60;;;;;;;20.35;55.42;98847.74;3820885;92;21134;-83
2021/08/28 12:08:41;;;;;;;1.27;0.65;;;;;;;20.19;56.73;98841.06;3795211;91;21495;-83
2021/08/28 12:14:43;;;;;;;0.50;0.50;;;;;;;20.14;57.48;98851.94;3888931;89;21621;-83
2021/08/28 12:20:44;;;;;;;1.72;0.90;;;;;;;20.16;57.67;98853.07;3900792;89;21158;-83
2021/08/28 12:26:55;;;;;;;2.02;0.70;;;;;;;20.20;57.77;98850.95;3824885;91;21764;-82
2021/08/28 12:32:56;;;;;;;1.15;0.60;;;;;;;20.14;58.20;98848.55;3908005;90;21896;-83
2021/08/28 12:39:02;;;;;;;0.78;0.60;;;;;;;20.16;56.67;98844.73;3903141;89;21048;-83
2021/08/28 12:45:07;;;;;;;1.07;0.57;;;;;;;20.12;55.65;98848.81;3887288;90;21193;-83
2021/08/28 12:51:09;;;;;;;2.27;0.60;;;;;;;20.03;55.18;98845.88;3895714;90;21136;-83
2021/08/28 12:57:27;;;;;;;1.60;0.60;;;;;;;19.80;55.65;98833.06;3897403;90;21067;-82
2021/08/28 13:03:30;;;;;;;0.85;0.68;;;;;;;19.67;55.45;98820.36;3913074;90;21097;-83
2021/08/28 13:09:31;;;;;;;0.98;0.78;;;;;;;19.60;56.50;98826.89;3904627;89;21154;-83
2021/08/28 13:15:41;;;;;;;0.98;0.70;;;;;;;19.52;57.01;98835.84;3899142;90;21067;-84
2021/08/28 13:21:47;;;;;;;0.90;0.70;;;;;;;19.46;56.42;98825.89;3898128;89;21547;-83
2021/08/28 13:27:49;;;;;;;0.70;0.57;;;;;;;19.33;55.47;98825.05;3899201;90;21087;-83
2021/08/28 13:34:00;;;;;;;0.95;0.70;;;;;;;19.30;57.16;98808.48;3817073;91;21143;-83
2021/08/28 13:40:02;;;;;;;0.85;0.65;;;;;;;19.27;57.42;98804.56;3788671;91;21576;-83
2021/08/28 13:46:03;;;;;;;0.75;0.60;;;;;;;19.18;58.91;98793.92;3865871;89;22001;-84
2021/08/28 13:52:06;;;;;;;1.45;0.70;;;;;;;19.11;59.50;98794.09;3792951;92;21085;-83
2021/08/28 13:58:09;;;;;;;1.62;0.80;;;;;;;19.12;60.00;98786.72;3795906;92;21143;-83
2021/08/28 14:04:10;;;;;;;1.27;0.90;;;;;;;19.19;60.29;98799.63;3819162;92;21107;-81
2021/08/28 14:10:12;;;;;;;0.80;0.60;;;;;;;19.15;59.49;98805.30;3821140;91;21072;-83
2021/08/28 14:16:13;;;;;;;1.52;0.90;;;;;;;19.03;59.89;98807.38;3817904;92;21077;-81
2021/08/28 14:22:14;;;;;;;1.27;0.75;;;;;;;18.96;60.42;98805.39;3812687;92;21093;-83
2021/08/28 14:28:16;;;;;;;1.07;0.80;;;;;;;18.87;59.59;98812.92;3813935;92;21666;-82
2021/08/28 14:34:17;;;;;;;0.98;0.70;;;;;;;18.76;58.75;98814.42;3813814;92;21287;-82
2021/08/28 14:40:19;;;;;;;1.27;0.88;;;;;;;18.76;59.86;98808.28;3823217;92;21675;-83
2021/08/28 14:46:20;;;;;;;1.45;0.80;;;;;;;18.76;59.54;98801.34;3829922;91;21189;-82
2021/08/28 14:52:21;;;;;;;1.60;1.00;;;;;;;18.77;60.37;98801.51;3864209;89;21071;-84
2021/08/28 14:58:22;;;;;;;1.30;1.10;;;;;;;18.66;60.92;98799.01;3895628;89;21096;-81
2021/08/28 15:04:24;;;;;;;2.47;0.95;;;;;;;18.60;60.31;98802.73;3899477;90;21236;-85
2021/08/28 15:10:25;;;;;;;1.60;0.75;;;;;;;18.55;60.16;98797.69;3904023;90;21101;-83
2021/08/28 15:16:30;;;;;;;0.82;0.80;;;;;;;18.51;60.53;98791.47;3901653;89;21121;-83
2021/08/28 15:22:33;;;;;;;1.20;1.00;;;;;;;18.55;61.02;98797.69;3886778;90;21059;-83
2021/08/28 15:28:37;;;;;;;2.22;1.42;;;;;;;18.50;61.23;98803.75;3884595;90;21063;-83
2021/08/28 15:34:38;;;;;;;2.27;1.00;;;;;;;18.48;61.04;98792.30;3888348;90;21578;-83
2021/08/28 15:40:39;;;;;;;1.00;0.85;;;;;;;18.42;61.12;98794.03;3894760;89;22103;-83
2021/08/28 15:46:40;;;;;;;0.90;0.78;;;;;;;18.36;61.39;98792.37;3887576;90;21081;-83
2021/08/28 15:52:42;;;;;;;1.40;0.90;;;;;;;18.32;61.89;98796.44;3888301;89;21057;-83
2021/08/28 15:58:44;;;;;;;1.75;1.02;;;;;;;18.31;62.08;98796.23;3879367;91;21450;-81
2021/08/28 16:04:45;;;;;;;1.30;0.80;;;;;;;18.27;62.07;98799.12;3883711;91;21422;-82
2021/08/28 16:10:46;;;;;;;2.75;0.90;;;;;;;18.26;62.50;98795.39;3887299;89;21092;-82
2021/08/28 16:16:47;;;;;;;1.30;0.82;;;;;;;18.24;62.85;98796.42;3875651;91;21163;-82
2021/08/28 16:22:49;;;;;;;2.27;0.82;;;;;;;18.23;63.04;98794.84;3881233;91;21071;-82
2021/08/28 16:28:51;;;;;;;2.00;1.20;;;;;;;18.15;63.49;98792.08;3888166;89;21098;-82
2021/08/28 16:34:53;;;;;;;1.47;1.10;;;;;;;18.09;64.18;98789.62;3883499;90;21080;-81
2021/08/28 16:40:55;;;;;;;4.85;1.98;;;;;;;18.02;64.76;98787.02;3876479;90;21059;-83
2021/08/28 16:46:56;;;;;;;1.45;1.00;;;;;;;17.92;65.73;98783.87;3891767;89;21556;-82
2021/08/28 16:52:58;;;;;;;1.62;1.20;;;;;;;17.82;65.65;98777.34;3907282;89;21104;-83
2021/08/28 16:58:59;;;;;;;2.92;1.30;;;;;;;17.73;66.16;98786.84;3909773;89;22174;-82
2021/08/28 17:05:01;;;;;;;15.88;12.58;;;;;;;17.61;66.50;98785.32;3911298;90;21173;-83
2021/08/28 17:11:02;;;;;;;7.10;4.65;;;;;;;17.49;67.19;98782.61;3909857;90;21126;-83
2021/08/28 17:17:04;;;;;;;4.80;3.08;;;;;;;17.20;67.93;98793.40;3918368;89;21099;-83
2021/08/28 17:23:06;;;;;;;7.00;4.70;;;;;;;17.01;68.98;98796.11;3917220;89;21103;-82
2021/08/28 17:29:08;;;;;;;8.68;5.60;;;;;;;16.88;69.61;98800.71;3910698;90;21038;-83
2021/08/28 17:35:09;;;;;;;232.67;180.00;;;;;;;16.85;70.23;98818.14;3917244;89;21156;-82
2021/08/28 17:41:10;;;;;;;31.10;22.62;;;;;;;16.69;70.64;98818.80;3921760;90;21185;-82
2021/08/28 17:47:12;;;;;;;12.85;9.65;;;;;;;16.53;71.35;98808.98;3909518;90;21139;-83
2021/08/28 17:53:13;;;;;;;10.68;6.92;;;;;;;16.35;72.04;98808.42;3895268;89;21115;-83
2021/08/28 17:59:14;;;;;;;15.48;10.90;;;;;;;16.07;72.98;98816.35;3898629;89;21208;-83
2021/08/28 18:05:16;;;;;;;29.98;16.97;;;;;;;15.96;73.48;98817.86;3901381;90;21039;-82
2021/08/28 18:11:18;;;;;;;16.23;11.05;;;;;;;15.83;74.07;98820.20;3888344;90;21510;-82
2021/08/28 18:17:19;;;;;;;18.00;12.98;;;;;;;15.66;74.37;98830.25;3899208;90;21719;-82
2021/08/28 18:23:20;;;;;;;20.27;11.93;;;;;;;15.40;75.02;98838.64;3896717;89;21103;-83
2021/08/28 18:29:22;;;;;;;16.62;12.45;;;;;;;15.32;75.62;98833.56;3888619;89;21103;-83
2021/08/28 18:35:24;;;;;;;19.73;14.03;;;;;;;15.29;76.32;98844.83;3886895;89;21069;-82
2021/08/28 18:41:25;;;;;;;17.67;11.55;;;;;;;15.22;76.45;98850.41;3890317;90;21714;-83
2021/08/28 18:47:26;;;;;;;16.40;10.70;;;;;;;14.93;76.48;98851.87;3890609;89;21037;-83
2021/08/28 18:53:28;;;;;;;19.60;10.93;;;;;;;14.75;77.35;98854.58;3879654;91;21392;-82
2021/08/28 18:59:29;;;;;;;40.35;21.75;;;;;;;14.74;78.27;98856.55;3872258;91;21193;-83
2021/08/28 19:05:30;;;;;;;29.45;16.85;;;;;;;14.73;78.22;98854.98;3883723;90;21082;-82
2021/08/28 19:11:31;;;;;;;42.53;24.82;;;;;;;14.69;79.06;98865.23;3880464;90;21191;-83
2021/08/28 19:17:33;;;;;;;38.92;21.12;;;;;;;14.67;79.36;98864.09;3880967;90;22269;-82
2021/08/28 19:23:34;;;;;;;30.60;17.30;;;;;;;14.70;79.67;98874.30;3880848;90;21056;-82
2021/08/28 19:29:35;;;;;;;26.70;14.93;;;;;;;14.61;79.89;98869.23;3790152;92;21065;-83
2021/08/28 19:35:37;;;;;;;29.27;14.38;;;;;;;14.72;80.63;98874.69;3793785;92;21133;-82
2021/08/28 19:41:38;;;;;;;39.73;18.32;;;;;;;14.78;80.71;98867.55;3797490;92;21154;-83
2021/08/28 19:47:39;;;;;;;29.52;16.00;;;;;;;14.75;80.91;98857.34;3807875;90;21567;-83
2021/08/28 19:53:40;;;;;;;30.45;15.32;;;;;;;14.80;81.38;98871.45;3860651;90;21160;-82
2021/08/28 19:59:41;;;;;;;22.40;13.32;;;;;;;14.88;81.62;98859.19;3856990;91;21053;-82
2021/08/28 20:05:43;;;;;;;23.32;13.48;;;;;;;14.93;81.99;98851.87;3847504;92;21133;-83
2021/08/28 20:11:45;;;;;;;22.52;12.93;;;;;;;14.98;82.21;98853.40;3855314;90;21104;-82
2021/08/28 20:17:46;;;;;;;14.15;9.08;;;;;;;14.99;82.68;98849.44;3846675;90;21097;-82
2021/08/28 20:23:48;;;;;;;12.10;7.70;;;;;;;14.90;82.90;98854.06;3796561;91;21465;-82
2021/08/28 20:29:49;;;;;;;18.87;9.20;;;;;;;14.81;82.95;98849.61;3911651;89;21137;-83
2021/08/28 20:35:50;;;;;;;16.90;8.93;;;;;;;14.74;83.28;98857.13;3904348;90;21176;-83
2021/08/28 20:41:51;;;;;;;13.32;8.83;;;;;;;14.70;83.57;98859.14;3902880;89;21605;-83
2021/08/28 20:47:52;;;;;;;16.60;9.78;;;;;;;14.63;83.49;98853.67;3900545;90;21205;-82
2021/08/28 20:53:53;;;;;;;15.63;8.83;;;;;;;14.58;83.75;98850.75;3914803;89;21095;-83
2021/08/28 20:59:55;;;;;;;15.20;8.50;;;;;;;14.53;84.06;98851.80;3932110;90;21170;-81
2021/08/28 21:05:56;;;;;;;16.85;9.75;;;;;;;14.52;84.54;98848.86;3929736;90;21620;-83
2021/08/28 21:11:57;;;;;;;13.72;7.95;;;;;;;14.51;84.48;98851.41;3937406;89;21727;-83
2021/08/28 21:17:59;;;;;;;13.72;9.10;;;;;;;14.46;84.97;98850.45;3923498;89;21044;-82
2021/08/28 21:24:00;;;;;;;13.88;8.73;;;;;;;14.36;84.94;98850.70;3925721;90;21093;-82
2021/08/28 21:30:01;;;;;;;12.20;7.75;;;;;;;14.35;85.47;98835.97;3924915;90;21057;-83
2021/08/28 21:36:03;;;;;;;13.83;9.15;;;;;;;14.38;85.96;98835.16;3932181;89;21133;-82
2021/08/28 21:42:06;;;;;;;14.45;8.55;;;;;;;14.28;85.75;98833.27;3929917;90;21054;-82
2021/08/28 21:48:07;;;;;;;18.25;10.48;;;;;;;14.16;86.16;98824.27;3897783;89;21144;-82
2021/08/28 21:54:09;;;;;;;16.62;10.82;;;;;;;14.26;86.66;98829.55;3902334;89;21112;-82
2021/08/28 22:00:19;;;;;;;22.05;14.80;;;;;;;14.29;86.87;98836.20;3898030;90;21111;-83
2021/08/28 22:06:20;;;;;;;19.85;11.33;;;;;;;14.33;86.99;98834.99;3898251;89;21077;-82
2021/08/28 22:12:21;;;;;;;23.75;13.15;;;;;;;14.38;87.15;98839.28;3909984;89;21827;-82
2021/08/28 22:18:22;;;;;;;17.52;10.35;;;;;;;14.44;87.26;98837.09;3903154;90;21071;-82
2021/08/28 22:24:24;;;;;;;14.18;8.55;;;;;;;14.45;87.47;98833.16;3897944;89;21138;-83
2021/08/28 22:30:25;;;;;;;12.33;8.00;;;;;;;14.45;87.61;98838.67;3890030;89;21059;-83
2021/08/28 22:36:27;;;;;;;12.95;7.90;;;;;;;14.32;87.37;98836.77;3896366;89;21114;-83
2021/08/28 22:42:28;;;;;;;10.25;7.37;;;;;;;14.24;87.91;98837.41;3889875;90;21111;-83
2021/08/28 22:48:29;;;;;;;12.18;7.72;;;;;;;14.25;88.02;98838.97;3908669;88;21150;-83
2021/08/28 22:54:30;;;;;;;11.38;6.92;;;;;;;14.21;88.11;98831.31;3927529;89;21078;-83
2021/08/28 23:00:32;;;;;;;12.23;7.83;;;;;;;14.23;88.45;98830.33;3924864;89;21190;-83
2021/08/28 23:06:33;;;;;;;10.53;6.28;;;;;;;14.15;88.48;98830.17;3928708;89;21113;-82
2021/08/28 23:12:36;;;;;;;15.53;6.90;;;;;;;14.18;88.68;98815.60;3928634;89;21351;-83
2021/08/28 23:18:37;;;;;;;11.45;6.58;;;;;;;14.17;88.81;98814.80;3922518;90;21182;-83
2021/08/28 23:24:38;;;;;;;11.15;6.70;;;;;;;14.19;89.03;98811.65;3919633;89;21139;-80
2021/08/28 23:30:40;;;;;;;12.47;6.95;;;;;;;14.14;88.97;98807.36;3916917;89;21051;-82
2021/08/28 23:36:41;;;;;;;12.13;7.12;;;;;;;14.08;89.27;98811.72;3923419;90;21064;-82
2021/08/28 23:42:42;;;;;;;9.35;6.37;;;;;;;14.07;89.53;98805.25;3909748;90;21603;-81
2021/08/28 23:48:44;;;;;;;11.05;6.85;;;;;;;14.02;89.31;98807.83;3919908;89;21087;-82
2021/08/28 23:54:45;;;;;;;11.65;7.37;;;;;;;13.87;89.43;98811.06;3919918;89;21596;-82
